<?xml version="1.0" encoding="UTF-8" standalone="no" ?>
<gpx xmlns="http://www.topografix.com/GPX/1/1" xmlns:xsi="http://www.w3.org/2001/XMLSchema-instance" xsi:schemaLocation="http://www.topografix.com/GPX/1/1 http://www.topografix.com/GPX/1/1/gpx.xsd" version="1.1" creator="VisuGPX - https://www.visugpx.com">
  <metadata>
    <name>PichaurisJack</name>
    <desc><![CDATA[Une trace raccourcie pour éviter le détour est. ]]></desc>
  </metadata>
  <trk>
    <name><![CDATA[20190324180735-N3QPC]]></name>
    <trkseg>
      <trkpt lat="43.36237" lon="5.56002">
        <ele>453</ele>
        <time>2015-04-22T12:01:07Z</time>
      </trkpt>
      <trkpt lat="43.36246" lon="5.55981">
        <ele>453</ele>
        <time>2015-04-22T12:03:42Z</time>
      </trkpt>
      <trkpt lat="43.36247" lon="5.55981">
        <ele>453.3</ele>
        <time>2015-04-22T12:03:43Z</time>
      </trkpt>
      <trkpt lat="43.3625" lon="5.55933">
        <ele>448</ele>
        <time>2015-04-22T12:04:39Z</time>
      </trkpt>
      <trkpt lat="43.3626" lon="5.55913">
        <ele>442.3</ele>
        <time>2015-04-22T12:05:07Z</time>
      </trkpt>
      <trkpt lat="43.36261" lon="5.55913">
        <ele>442.7</ele>
        <time>2015-04-22T12:05:08Z</time>
      </trkpt>
      <trkpt lat="43.36285" lon="5.5588">
        <ele>437.3</ele>
        <time>2015-04-22T12:05:51Z</time>
      </trkpt>
      <trkpt lat="43.36302" lon="5.55874">
        <ele>433</ele>
        <time>2015-04-22T12:06:21Z</time>
      </trkpt>
      <trkpt lat="43.36303" lon="5.55874">
        <ele>432.8</ele>
        <time>2015-04-22T12:06:22Z</time>
      </trkpt>
      <trkpt lat="43.36336" lon="5.55877">
        <ele>426</ele>
        <time>2015-04-22T12:06:57Z</time>
      </trkpt>
      <trkpt lat="43.36352" lon="5.55867">
        <ele>425.5</ele>
        <time>2015-04-22T12:07:14Z</time>
      </trkpt>
      <trkpt lat="43.36369" lon="5.5586">
        <ele>425.2</ele>
        <time>2015-04-22T12:07:30Z</time>
      </trkpt>
      <trkpt lat="43.3637" lon="5.55859">
        <ele>425.2</ele>
        <time>2015-04-22T12:07:31Z</time>
      </trkpt>
      <trkpt lat="43.36403" lon="5.55849">
        <ele>424.8</ele>
        <time>2015-04-22T12:08:03Z</time>
      </trkpt>
      <trkpt lat="43.36419" lon="5.5584">
        <ele>423.7</ele>
        <time>2015-04-22T12:08:19Z</time>
      </trkpt>
      <trkpt lat="43.36436" lon="5.55835">
        <ele>420.3</ele>
        <time>2015-04-22T12:08:38Z</time>
      </trkpt>
      <trkpt lat="43.36437" lon="5.55835">
        <ele>420</ele>
        <time>2015-04-22T12:08:39Z</time>
      </trkpt>
      <trkpt lat="43.36464" lon="5.5581">
        <ele>421.1</ele>
        <time>2015-04-22T12:09:14Z</time>
      </trkpt>
      <trkpt lat="43.36482" lon="5.55808">
        <ele>420.2</ele>
        <time>2015-04-22T12:09:51Z</time>
      </trkpt>
      <trkpt lat="43.36482" lon="5.55808">
        <ele>419.8</ele>
        <time>2015-04-22T12:09:52Z</time>
      </trkpt>
      <trkpt lat="43.36514" lon="5.55791">
        <ele>424.5</ele>
        <time>2015-04-22T12:10:29Z</time>
      </trkpt>
      <trkpt lat="43.36531" lon="5.55784">
        <ele>426.5</ele>
        <time>2015-04-22T12:10:50Z</time>
      </trkpt>
      <trkpt lat="43.36546" lon="5.55771">
        <ele>424.7</ele>
        <time>2015-04-22T12:11:07Z</time>
      </trkpt>
      <trkpt lat="43.36546" lon="5.5577">
        <ele>425.3</ele>
        <time>2015-04-22T12:11:08Z</time>
      </trkpt>
      <trkpt lat="43.36564" lon="5.5573">
        <ele>420.7</ele>
        <time>2015-04-22T12:11:39Z</time>
      </trkpt>
      <trkpt lat="43.36572" lon="5.55708">
        <ele>418.8</ele>
        <time>2015-04-22T12:11:57Z</time>
      </trkpt>
      <trkpt lat="43.36569" lon="5.55685">
        <ele>420.1</ele>
        <time>2015-04-22T12:12:12Z</time>
      </trkpt>
      <trkpt lat="43.36569" lon="5.55683">
        <ele>420.8</ele>
        <time>2015-04-22T12:12:13Z</time>
      </trkpt>
      <trkpt lat="43.36569" lon="5.55637">
        <ele>434.2</ele>
        <time>2015-04-22T12:12:49Z</time>
      </trkpt>
      <trkpt lat="43.36565" lon="5.55614">
        <ele>430.1</ele>
        <time>2015-04-22T12:13:05Z</time>
      </trkpt>
      <trkpt lat="43.36569" lon="5.55591">
        <ele>434.6</ele>
        <time>2015-04-22T12:13:20Z</time>
      </trkpt>
      <trkpt lat="43.3657" lon="5.55589">
        <ele>434.7</ele>
        <time>2015-04-22T12:13:21Z</time>
      </trkpt>
      <trkpt lat="43.36563" lon="5.5555">
        <ele>431</ele>
        <time>2015-04-22T12:13:46Z</time>
      </trkpt>
      <trkpt lat="43.36558" lon="5.55527">
        <ele>421.7</ele>
        <time>2015-04-22T12:14:03Z</time>
      </trkpt>
      <trkpt lat="43.36563" lon="5.55504">
        <ele>427.3</ele>
        <time>2015-04-22T12:14:16Z</time>
      </trkpt>
      <trkpt lat="43.36572" lon="5.55484">
        <ele>435.7</ele>
        <time>2015-04-22T12:14:27Z</time>
      </trkpt>
      <trkpt lat="43.36573" lon="5.55483">
        <ele>437.1</ele>
        <time>2015-04-22T12:14:28Z</time>
      </trkpt>
      <trkpt lat="43.36584" lon="5.55439">
        <ele>429.7</ele>
        <time>2015-04-22T12:15:01Z</time>
      </trkpt>
      <trkpt lat="43.36582" lon="5.55415">
        <ele>424.7</ele>
        <time>2015-04-22T12:15:17Z</time>
      </trkpt>
      <trkpt lat="43.36587" lon="5.55392">
        <ele>429.5</ele>
        <time>2015-04-22T12:15:34Z</time>
      </trkpt>
      <trkpt lat="43.36587" lon="5.55391">
        <ele>428.6</ele>
        <time>2015-04-22T12:15:35Z</time>
      </trkpt>
      <trkpt lat="43.36582" lon="5.55345">
        <ele>415.5</ele>
        <time>2015-04-22T12:16:13Z</time>
      </trkpt>
      <trkpt lat="43.3658" lon="5.55321">
        <ele>413.8</ele>
        <time>2015-04-22T12:16:31Z</time>
      </trkpt>
      <trkpt lat="43.36568" lon="5.55304">
        <ele>407.7</ele>
        <time>2015-04-22T12:16:44Z</time>
      </trkpt>
      <trkpt lat="43.36566" lon="5.55302">
        <ele>406.3</ele>
        <time>2015-04-22T12:16:45Z</time>
      </trkpt>
      <trkpt lat="43.36557" lon="5.55263">
        <ele>399.2</ele>
        <time>2015-04-22T12:17:20Z</time>
      </trkpt>
      <trkpt lat="43.36574" lon="5.55262">
        <ele>391.6</ele>
        <time>2015-04-22T12:17:37Z</time>
      </trkpt>
      <trkpt lat="43.36589" lon="5.55248">
        <ele>391.6</ele>
        <time>2015-04-22T12:17:54Z</time>
      </trkpt>
      <trkpt lat="43.36589" lon="5.55247">
        <ele>391.7</ele>
        <time>2015-04-22T12:17:55Z</time>
      </trkpt>
      <trkpt lat="43.3659" lon="5.552">
        <ele>389.7</ele>
        <time>2015-04-22T12:18:27Z</time>
      </trkpt>
      <trkpt lat="43.36603" lon="5.55184">
        <ele>384.2</ele>
        <time>2015-04-22T12:19:03Z</time>
      </trkpt>
      <trkpt lat="43.36603" lon="5.55183">
        <ele>384.3</ele>
        <time>2015-04-22T12:19:04Z</time>
      </trkpt>
      <trkpt lat="43.36618" lon="5.55141">
        <ele>386.8</ele>
        <time>2015-04-22T12:19:35Z</time>
      </trkpt>
      <trkpt lat="43.36618" lon="5.55117">
        <ele>386</ele>
        <time>2015-04-22T12:19:50Z</time>
      </trkpt>
      <trkpt lat="43.36619" lon="5.55093">
        <ele>386.1</ele>
        <time>2015-04-22T12:20:04Z</time>
      </trkpt>
      <trkpt lat="43.36619" lon="5.55091">
        <ele>386.1</ele>
        <time>2015-04-22T12:20:05Z</time>
      </trkpt>
      <trkpt lat="43.36631" lon="5.55049">
        <ele>385.3</ele>
        <time>2015-04-22T12:20:32Z</time>
      </trkpt>
      <trkpt lat="43.3664" lon="5.55029">
        <ele>383.8</ele>
        <time>2015-04-22T12:20:48Z</time>
      </trkpt>
      <trkpt lat="43.36654" lon="5.55014">
        <ele>382.7</ele>
        <time>2015-04-22T12:21:08Z</time>
      </trkpt>
      <trkpt lat="43.36654" lon="5.55013">
        <ele>382.6</ele>
        <time>2015-04-22T12:21:09Z</time>
      </trkpt>
      <trkpt lat="43.36627" lon="5.54984">
        <ele>376.6</ele>
        <time>2015-04-22T12:21:49Z</time>
      </trkpt>
      <trkpt lat="43.36619" lon="5.54962">
        <ele>373.2</ele>
        <time>2015-04-22T12:22:22Z</time>
      </trkpt>
      <trkpt lat="43.36619" lon="5.54962">
        <ele>373.2</ele>
        <time>2015-04-22T12:22:23Z</time>
      </trkpt>
      <trkpt lat="43.36609" lon="5.54941">
        <ele>376.7</ele>
        <time>2015-04-22T12:25:15Z</time>
      </trkpt>
      <trkpt lat="43.36577" lon="5.54932">
        <ele>372</ele>
        <time>2015-04-22T12:25:41Z</time>
      </trkpt>
      <trkpt lat="43.36564" lon="5.54915">
        <ele>370.6</ele>
        <time>2015-04-22T12:25:55Z</time>
      </trkpt>
      <trkpt lat="43.36552" lon="5.54898">
        <ele>367.2</ele>
        <time>2015-04-22T12:26:10Z</time>
      </trkpt>
      <trkpt lat="43.36541" lon="5.54881">
        <ele>366.7</ele>
        <time>2015-04-22T12:26:22Z</time>
      </trkpt>
      <trkpt lat="43.3654" lon="5.54879">
        <ele>366.7</ele>
        <time>2015-04-22T12:26:23Z</time>
      </trkpt>
      <trkpt lat="43.3652" lon="5.54843">
        <ele>365.8</ele>
        <time>2015-04-22T12:26:49Z</time>
      </trkpt>
      <trkpt lat="43.3651" lon="5.54824">
        <ele>365.3</ele>
        <time>2015-04-22T12:27:05Z</time>
      </trkpt>
      <trkpt lat="43.36497" lon="5.54808">
        <ele>365.2</ele>
        <time>2015-04-22T12:27:23Z</time>
      </trkpt>
      <trkpt lat="43.36497" lon="5.54806">
        <ele>365.2</ele>
        <time>2015-04-22T12:27:24Z</time>
      </trkpt>
      <trkpt lat="43.36494" lon="5.5476">
        <ele>366.1</ele>
        <time>2015-04-22T12:27:54Z</time>
      </trkpt>
      <trkpt lat="43.36491" lon="5.54736">
        <ele>364.5</ele>
        <time>2015-04-22T12:28:09Z</time>
      </trkpt>
      <trkpt lat="43.36489" lon="5.54712">
        <ele>360.7</ele>
        <time>2015-04-22T12:28:26Z</time>
      </trkpt>
      <trkpt lat="43.36489" lon="5.54711">
        <ele>361.1</ele>
        <time>2015-04-22T12:28:27Z</time>
      </trkpt>
      <trkpt lat="43.3649" lon="5.54665">
        <ele>356.6</ele>
        <time>2015-04-22T12:28:56Z</time>
      </trkpt>
      <trkpt lat="43.36494" lon="5.54642">
        <ele>353.3</ele>
        <time>2015-04-22T12:29:13Z</time>
      </trkpt>
      <trkpt lat="43.36496" lon="5.54617">
        <ele>348.8</ele>
        <time>2015-04-22T12:29:30Z</time>
      </trkpt>
      <trkpt lat="43.36497" lon="5.54616">
        <ele>348.7</ele>
        <time>2015-04-22T12:29:31Z</time>
      </trkpt>
      <trkpt lat="43.36494" lon="5.54569">
        <ele>350.7</ele>
        <time>2015-04-22T12:29:54Z</time>
      </trkpt>
      <trkpt lat="43.36494" lon="5.54544">
        <ele>351.3</ele>
        <time>2015-04-22T12:30:09Z</time>
      </trkpt>
      <trkpt lat="43.36494" lon="5.54521">
        <ele>352.2</ele>
        <time>2015-04-22T12:30:24Z</time>
      </trkpt>
      <trkpt lat="43.36494" lon="5.54497">
        <ele>353.3</ele>
        <time>2015-04-22T12:30:39Z</time>
      </trkpt>
      <trkpt lat="43.36494" lon="5.54495">
        <ele>353.5</ele>
        <time>2015-04-22T12:30:40Z</time>
      </trkpt>
      <trkpt lat="43.365" lon="5.54449">
        <ele>347.3</ele>
        <time>2015-04-22T12:31:24Z</time>
      </trkpt>
      <trkpt lat="43.36496" lon="5.54425">
        <ele>341.6</ele>
        <time>2015-04-22T12:31:54Z</time>
      </trkpt>
      <trkpt lat="43.36496" lon="5.54424">
        <ele>341.3</ele>
        <time>2015-04-22T12:31:55Z</time>
      </trkpt>
      <trkpt lat="43.36489" lon="5.54379">
        <ele>345.2</ele>
        <time>2015-04-22T12:32:24Z</time>
      </trkpt>
      <trkpt lat="43.36479" lon="5.54358">
        <ele>344.7</ele>
        <time>2015-04-22T12:32:40Z</time>
      </trkpt>
      <trkpt lat="43.36466" lon="5.54342">
        <ele>342.6</ele>
        <time>2015-04-22T12:32:57Z</time>
      </trkpt>
      <trkpt lat="43.36465" lon="5.54341">
        <ele>342.3</ele>
        <time>2015-04-22T12:32:58Z</time>
      </trkpt>
      <trkpt lat="43.36454" lon="5.543">
        <ele>340.3</ele>
        <time>2015-04-22T12:33:31Z</time>
      </trkpt>
      <trkpt lat="43.36451" lon="5.54276">
        <ele>341</ele>
        <time>2015-04-22T12:33:46Z</time>
      </trkpt>
      <trkpt lat="43.36449" lon="5.54252">
        <ele>342.3</ele>
        <time>2015-04-22T12:34:01Z</time>
      </trkpt>
      <trkpt lat="43.36449" lon="5.54251">
        <ele>342.1</ele>
        <time>2015-04-22T12:34:02Z</time>
      </trkpt>
      <trkpt lat="43.36447" lon="5.54205">
        <ele>341.7</ele>
        <time>2015-04-22T12:34:33Z</time>
      </trkpt>
      <trkpt lat="43.36449" lon="5.54181">
        <ele>341.7</ele>
        <time>2015-04-22T12:35:09Z</time>
      </trkpt>
      <trkpt lat="43.36449" lon="5.5418">
        <ele>341.7</ele>
        <time>2015-04-22T12:35:10Z</time>
      </trkpt>
      <trkpt lat="43.36463" lon="5.54198">
        <ele>339</ele>
        <time>2015-04-22T12:38:38Z</time>
      </trkpt>
      <trkpt lat="43.36495" lon="5.54204">
        <ele>344.5</ele>
        <time>2015-04-22T12:39:05Z</time>
      </trkpt>
      <trkpt lat="43.36513" lon="5.54202">
        <ele>346.2</ele>
        <time>2015-04-22T12:39:23Z</time>
      </trkpt>
      <trkpt lat="43.36525" lon="5.54186">
        <ele>344</ele>
        <time>2015-04-22T12:39:50Z</time>
      </trkpt>
      <trkpt lat="43.36526" lon="5.54185">
        <ele>343.7</ele>
        <time>2015-04-22T12:39:51Z</time>
      </trkpt>
      <trkpt lat="43.36536" lon="5.5414">
        <ele>340.5</ele>
        <time>2015-04-22T12:40:21Z</time>
      </trkpt>
      <trkpt lat="43.36543" lon="5.54119">
        <ele>339.2</ele>
        <time>2015-04-22T12:40:35Z</time>
      </trkpt>
      <trkpt lat="43.36555" lon="5.54101">
        <ele>337.5</ele>
        <time>2015-04-22T12:40:49Z</time>
      </trkpt>
      <trkpt lat="43.36567" lon="5.54085">
        <ele>336.2</ele>
        <time>2015-04-22T12:41:03Z</time>
      </trkpt>
      <trkpt lat="43.36568" lon="5.54084">
        <ele>336.2</ele>
        <time>2015-04-22T12:41:04Z</time>
      </trkpt>
      <trkpt lat="43.36592" lon="5.5405">
        <ele>335</ele>
        <time>2015-04-22T12:41:35Z</time>
      </trkpt>
      <trkpt lat="43.36608" lon="5.5404">
        <ele>337.3</ele>
        <time>2015-04-22T12:41:50Z</time>
      </trkpt>
      <trkpt lat="43.36623" lon="5.54027">
        <ele>337.6</ele>
        <time>2015-04-22T12:42:05Z</time>
      </trkpt>
      <trkpt lat="43.36624" lon="5.54026">
        <ele>337.2</ele>
        <time>2015-04-22T12:42:06Z</time>
      </trkpt>
      <trkpt lat="43.36646" lon="5.53994">
        <ele>333.7</ele>
        <time>2015-04-22T12:42:32Z</time>
      </trkpt>
      <trkpt lat="43.36651" lon="5.5397">
        <ele>330.5</ele>
        <time>2015-04-22T12:42:47Z</time>
      </trkpt>
      <trkpt lat="43.3666" lon="5.5395">
        <ele>329.1</ele>
        <time>2015-04-22T12:43:01Z</time>
      </trkpt>
      <trkpt lat="43.36676" lon="5.53939">
        <ele>328.2</ele>
        <time>2015-04-22T12:43:17Z</time>
      </trkpt>
      <trkpt lat="43.36677" lon="5.53939">
        <ele>328.7</ele>
        <time>2015-04-22T12:43:18Z</time>
      </trkpt>
      <trkpt lat="43.3671" lon="5.53931">
        <ele>329.5</ele>
        <time>2015-04-22T12:43:46Z</time>
      </trkpt>
      <trkpt lat="43.36726" lon="5.53923">
        <ele>328</ele>
        <time>2015-04-22T12:44:02Z</time>
      </trkpt>
      <trkpt lat="43.36742" lon="5.53913">
        <ele>326.3</ele>
        <time>2015-04-22T12:44:17Z</time>
      </trkpt>
      <trkpt lat="43.36759" lon="5.53905">
        <ele>324.2</ele>
        <time>2015-04-22T12:44:32Z</time>
      </trkpt>
      <trkpt lat="43.3676" lon="5.53905">
        <ele>323.6</ele>
        <time>2015-04-22T12:44:33Z</time>
      </trkpt>
      <trkpt lat="43.36791" lon="5.53884">
        <ele>319.2</ele>
        <time>2015-04-22T12:45:00Z</time>
      </trkpt>
      <trkpt lat="43.36802" lon="5.53867">
        <ele>316.2</ele>
        <time>2015-04-22T12:45:14Z</time>
      </trkpt>
      <trkpt lat="43.36815" lon="5.53852">
        <ele>315.5</ele>
        <time>2015-04-22T12:45:28Z</time>
      </trkpt>
      <trkpt lat="43.36829" lon="5.53841">
        <ele>317.1</ele>
        <time>2015-04-22T12:45:45Z</time>
      </trkpt>
      <trkpt lat="43.36831" lon="5.5384">
        <ele>318</ele>
        <time>2015-04-22T12:45:46Z</time>
      </trkpt>
      <trkpt lat="43.36864" lon="5.53838">
        <ele>316.7</ele>
        <time>2015-04-22T12:46:14Z</time>
      </trkpt>
      <trkpt lat="43.3688" lon="5.53829">
        <ele>319.3</ele>
        <time>2015-04-22T12:46:28Z</time>
      </trkpt>
      <trkpt lat="43.36895" lon="5.53816">
        <ele>321.7</ele>
        <time>2015-04-22T12:46:42Z</time>
      </trkpt>
      <trkpt lat="43.36908" lon="5.53801">
        <ele>318.8</ele>
        <time>2015-04-22T12:46:57Z</time>
      </trkpt>
      <trkpt lat="43.36909" lon="5.538">
        <ele>318.5</ele>
        <time>2015-04-22T12:46:58Z</time>
      </trkpt>
      <trkpt lat="43.36928" lon="5.53761">
        <ele>312.3</ele>
        <time>2015-04-22T12:47:27Z</time>
      </trkpt>
      <trkpt lat="43.36942" lon="5.53746">
        <ele>310.2</ele>
        <time>2015-04-22T12:47:43Z</time>
      </trkpt>
      <trkpt lat="43.36956" lon="5.53734">
        <ele>311.8</ele>
        <time>2015-04-22T12:47:58Z</time>
      </trkpt>
      <trkpt lat="43.36958" lon="5.53733">
        <ele>311.8</ele>
        <time>2015-04-22T12:47:59Z</time>
      </trkpt>
      <trkpt lat="43.36991" lon="5.53728">
        <ele>306.6</ele>
        <time>2015-04-22T12:48:31Z</time>
      </trkpt>
      <trkpt lat="43.37009" lon="5.53725">
        <ele>307.2</ele>
        <time>2015-04-22T12:48:45Z</time>
      </trkpt>
      <trkpt lat="43.37025" lon="5.5372">
        <ele>309.2</ele>
        <time>2015-04-22T12:49:00Z</time>
      </trkpt>
      <trkpt lat="43.37027" lon="5.5372">
        <ele>309.2</ele>
        <time>2015-04-22T12:49:01Z</time>
      </trkpt>
    </trkseg>
  </trk>
</gpx>